createdAt,value
2022-12-31T00:01:16.402Z,80.20
2022-12-31T00:03:59.601Z,81.28
2022-12-31T00:06:42.461Z,81.17
2022-12-31T00:09:26.664Z,80.53
2022-12-31T00:12:09.492Z,80.17
2022-12-31T00:14:52.323Z,80.71
2022-12-31T00:17:35.133Z,80.11
2022-12-31T00:20:18.494Z,79.96
2022-12-31T00:23:01.459Z,80.56
2022-12-31T00:25:45.601Z,80.17
2022-12-31T00:28:29.232Z,80.01
2022-12-31T00:31:14.939Z,80.16
2022-12-31T00:33:58.667Z,80.11
2022-12-31T00:36:42.601Z,80.45
2022-12-31T00:39:25.546Z,80.62
2022-12-31T00:42:09.721Z,80.20
2022-12-31T00:44:52.515Z,80.11
2022-12-31T00:47:35.346Z,79.97
2022-12-31T00:50:18.308Z,79.80
2022-12-31T00:53:01.141Z,79.87
2022-12-31T00:55:44.253Z,79.80
2022-12-31T00:58:28.493Z,79.59
2022-12-31T01:01:12.096Z,79.76
2022-12-31T01:03:57.361Z,80.27
2022-12-31T01:06:40.745Z,80.43
2022-12-31T01:09:23.524Z,80.12
2022-12-31T01:12:06.905Z,80.39
2022-12-31T01:14:51.064Z,80.74
2022-12-31T01:17:33.876Z,80.99
2022-12-31T01:20:16.815Z,80.82
2022-12-31T01:22:59.812Z,80.97
2022-12-31T01:25:42.854Z,81.33
2022-12-31T01:28:25.755Z,81.51
2022-12-31T01:31:12.101Z,81.15
2022-12-31T01:33:55.327Z,80.96
2022-12-31T01:36:38.705Z,80.92
2022-12-31T01:39:21.541Z,80.98
2022-12-31T01:42:04.433Z,80.91
2022-12-31T01:44:54.221Z,80.62
2022-12-31T01:47:43.114Z,80.71
2022-12-31T01:50:30.298Z,81.21
2022-12-31T01:53:13.244Z,81.12
2022-12-31T01:56:00.153Z,80.97
2022-12-31T01:58:47.102Z,81.10
2022-12-31T02:01:33.185Z,80.75
2022-12-31T02:04:17.753Z,81.16
2022-12-31T02:07:03.213Z,80.82
2022-12-31T02:09:46.037Z,80.86
2022-12-31T02:12:29.010Z,80.87
2022-12-31T02:15:12.437Z,80.63
2022-12-31T02:18:00.117Z,80.56
2022-12-31T02:21:21.315Z,80.61
2022-12-31T02:24:36.240Z,80.68
2022-12-31T02:27:34.931Z,80.55
2022-12-31T02:30:21.739Z,80.76
2022-12-31T02:33:14.971Z,81.28
2022-12-31T02:36:01.216Z,81.25
2022-12-31T02:38:47.832Z,81.33
2022-12-31T02:41:47.914Z,81.35
2022-12-31T02:44:33.100Z,81.85
2022-12-31T02:47:31.787Z,81.70
2022-12-31T02:50:29.495Z,81.33
2022-12-31T02:53:25.931Z,81.33
2022-12-31T02:56:16.032Z,81.11
2022-12-31T02:59:22.116Z,81.04
2022-12-31T03:02:16.571Z,81.03
2022-12-31T03:05:03.710Z,81.03
2022-12-31T03:07:47.216Z,81.11
2022-12-31T03:10:30.071Z,81.04
2022-12-31T03:13:11.900Z,81.07
2022-12-31T03:15:54.772Z,80.95
2022-12-31T03:18:51.883Z,80.88
2022-12-31T03:21:53.399Z,80.75
2022-12-31T03:24:54.011Z,80.72
2022-12-31T03:27:36.800Z,80.67
2022-12-31T03:30:21.323Z,80.82
2022-12-31T03:33:05.217Z,80.87
2022-12-31T03:35:49.155Z,81.04
2022-12-31T03:38:33.333Z,80.91
2022-12-31T03:41:16.152Z,81.43
2022-12-31T03:43:58.979Z,81.18
2022-12-31T03:46:41.771Z,80.99
2022-12-31T03:49:24.697Z,80.71
2022-12-31T03:52:08.685Z,80.80
2022-12-31T03:54:52.856Z,80.74
2022-12-31T03:57:35.752Z,80.82
2022-12-31T04:00:21.983Z,80.65
2022-12-31T04:03:05.135Z,80.71
2022-12-31T04:05:53.809Z,80.90
2022-12-31T04:08:36.631Z,80.82
2022-12-31T04:11:21.255Z,80.82
2022-12-31T04:14:03.997Z,80.72
2022-12-31T04:16:47.088Z,80.47
2022-12-31T04:19:30.022Z,80.44
2022-12-31T04:22:13.230Z,80.44
2022-12-31T04:24:56.096Z,80.47
2022-12-31T04:27:41.386Z,80.45
2022-12-31T04:30:24.663Z,80.36
2022-12-31T04:33:07.491Z,80.43
2022-12-31T04:35:50.280Z,80.50
2022-12-31T04:38:33.420Z,80.60
2022-12-31T04:41:19.808Z,80.95
2022-12-31T04:44:04.033Z,80.82
2022-12-31T04:46:47.141Z,80.74
2022-12-31T04:49:30.067Z,80.68
2022-12-31T04:52:12.882Z,80.90
2022-12-31T04:54:55.727Z,80.82
2022-12-31T04:57:38.524Z,80.98
2022-12-31T05:00:22.795Z,81.35
2022-12-31T05:03:05.628Z,82.58
2022-12-31T05:05:50.065Z,82.70
2022-12-31T05:08:33.868Z,82.86
2022-12-31T05:11:17.765Z,82.52
2022-12-31T05:14:00.563Z,82.38
2022-12-31T05:16:44.781Z,82.32
2022-12-31T05:19:27.632Z,82.57
2022-12-31T05:22:27.942Z,82.39
2022-12-31T05:25:10.940Z,83.06
2022-12-31T05:27:53.988Z,82.62
2022-12-31T05:30:37.141Z,83.00
2022-12-31T05:33:22.951Z,82.69
2022-12-31T05:36:06.519Z,82.69
2022-12-31T05:38:49.325Z,83.04
2022-12-31T05:41:32.197Z,82.74
2022-12-31T05:44:15.176Z,84.12
2022-12-31T05:46:58.032Z,84.19
2022-12-31T05:49:42.276Z,83.74
2022-12-31T05:52:25.245Z,83.48
2022-12-31T05:55:08.487Z,83.05
2022-12-31T05:57:51.395Z,83.00
2022-12-31T06:00:34.273Z,83.66
2022-12-31T06:03:17.163Z,83.24
2022-12-31T06:06:02.486Z,83.04
2022-12-31T06:08:45.298Z,82.96
2022-12-31T06:11:28.178Z,82.97
2022-12-31T06:14:11.009Z,82.93
2022-12-31T06:16:54.008Z,82.89
2022-12-31T06:19:36.848Z,83.61
2022-12-31T06:22:21.068Z,83.09
2022-12-31T06:25:04.163Z,82.79
2022-12-31T06:27:47.000Z,82.78
2022-12-31T06:30:29.865Z,82.77
2022-12-31T06:33:12.748Z,82.54
2022-12-31T06:35:57.588Z,82.98
2022-12-31T06:38:42.905Z,83.29
2022-12-31T06:41:25.769Z,83.03
2022-12-31T06:44:08.697Z,83.24
2022-12-31T06:46:51.946Z,83.05
2022-12-31T06:49:34.848Z,82.83
2022-12-31T06:52:17.677Z,83.00
2022-12-31T06:55:02.431Z,82.90
2022-12-31T06:57:45.777Z,83.00
2022-12-31T07:00:29.612Z,83.58
2022-12-31T07:03:25.918Z,83.31
2022-12-31T07:06:12.291Z,83.11
2022-12-31T07:09:01.104Z,83.57
2022-12-31T07:11:57.835Z,84.24
2022-12-31T07:14:47.347Z,83.42
2022-12-31T07:17:36.653Z,83.08
2022-12-31T07:20:20.890Z,83.85
2022-12-31T07:23:04.187Z,83.51
2022-12-31T07:25:55.242Z,83.33
2022-12-31T07:28:52.113Z,83.58
2022-12-31T07:31:49.951Z,83.66
2022-12-31T07:34:43.039Z,83.32
2022-12-31T07:37:34.101Z,83.34
2022-12-31T07:40:24.991Z,82.95
2022-12-31T07:43:15.513Z,83.20
2022-12-31T07:46:08.530Z,83.50
2022-12-31T07:48:51.969Z,83.14
2022-12-31T07:51:35.865Z,83.02
2022-12-31T07:54:18.934Z,83.78
2022-12-31T07:57:01.962Z,83.39
2022-12-31T08:00:04.541Z,83.37
2022-12-31T08:03:09.131Z,82.88
2022-12-31T08:05:58.356Z,82.80
2022-12-31T08:08:51.817Z,84.20
2022-12-31T08:11:42.265Z,84.61
2022-12-31T08:14:25.649Z,84.22
2022-12-31T08:17:13.095Z,84.08
2022-12-31T08:19:58.664Z,83.46
2022-12-31T08:23:16.599Z,83.23
2022-12-31T08:26:09.845Z,82.82
2022-12-31T08:29:03.259Z,82.71
2022-12-31T08:31:55.102Z,82.70
2022-12-31T08:34:48.028Z,82.83
2022-12-31T08:37:40.239Z,83.04
2022-12-31T08:40:29.344Z,83.03
2022-12-31T08:43:27.166Z,84.58
2022-12-31T08:46:20.252Z,84.11
2022-12-31T08:49:03.622Z,83.41
2022-12-31T08:51:46.893Z,82.95
2022-12-31T08:54:31.903Z,83.15
2022-12-31T08:57:24.584Z,82.72
2022-12-31T09:00:12.223Z,82.47
2022-12-31T09:03:23.659Z,82.34
2022-12-31T09:06:12.616Z,82.88
2022-12-31T09:09:04.204Z,82.73
2022-12-31T09:12:05.114Z,82.49
2022-12-31T09:14:51.008Z,82.54
2022-12-31T09:17:45.817Z,82.17
2022-12-31T09:20:42.338Z,81.85
2022-12-31T09:23:27.046Z,81.56
2022-12-31T09:26:22.186Z,81.14
2022-12-31T09:29:15.109Z,81.13
2022-12-31T09:32:06.525Z,80.85
2022-12-31T09:34:56.656Z,81.36
2022-12-31T09:37:47.393Z,80.49
2022-12-31T09:40:50.138Z,80.25
2022-12-31T09:44:26.748Z,80.30
2022-12-31T09:47:39.288Z,80.00
2022-12-31T09:50:38.448Z,79.92
2022-12-31T09:53:32.093Z,81.21
2022-12-31T09:56:21.517Z,80.45
2022-12-31T09:59:11.434Z,80.72
2022-12-31T10:02:00.425Z,80.43
2022-12-31T10:05:00.563Z,80.28
2022-12-31T10:07:53.873Z,80.15
2022-12-31T10:10:47.508Z,80.30
2022-12-31T10:13:47.353Z,80.16
2022-12-31T10:16:52.983Z,78.77
2022-12-31T10:19:58.123Z,78.32
2022-12-31T10:23:00.604Z,78.56
2022-12-31T10:26:12.880Z,76.33
2022-12-31T10:29:00.849Z,76.90
2022-12-31T10:31:54.636Z,76.55
2022-12-31T10:34:52.734Z,75.77
2022-12-31T10:37:44.678Z,75.97
2022-12-31T10:40:45.494Z,74.55
2022-12-31T10:44:03.316Z,71.77
2022-12-31T10:47:04.881Z,72.86
2022-12-31T10:50:20.857Z,71.83
2022-12-31T10:53:48.079Z,71.20
2022-12-31T10:57:01.066Z,72.02
2022-12-31T11:00:16.434Z,72.26
2022-12-31T11:03:48.387Z,72.55
2022-12-31T11:07:14.011Z,72.50
2022-12-31T11:10:26.022Z,72.13
2022-12-31T11:13:40.282Z,71.07
2022-12-31T11:16:58.110Z,70.98
2022-12-31T11:19:52.139Z,71.76
2022-12-31T11:22:41.772Z,70.52
2022-12-31T11:25:34.621Z,71.96
2022-12-31T11:28:50.201Z,72.25
2022-12-31T11:31:55.512Z,72.81
2022-12-31T11:35:01.684Z,72.77
2022-12-31T11:37:48.500Z,72.94
2022-12-31T11:40:54.383Z,73.71
2022-12-31T11:43:40.805Z,73.71
2022-12-31T11:46:51.726Z,74.05
2022-12-31T11:49:46.435Z,73.78
2022-12-31T11:52:47.982Z,73.62
2022-12-31T11:55:42.353Z,73.04
2022-12-31T11:58:28.681Z,73.47
2022-12-31T12:01:15.029Z,73.53
2022-12-31T12:03:59.282Z,73.44
2022-12-31T12:06:43.598Z,73.45
2022-12-31T12:09:29.483Z,73.03
2022-12-31T12:12:12.963Z,73.33
2022-12-31T12:14:56.332Z,73.01
2022-12-31T12:17:39.601Z,72.70
2022-12-31T12:20:31.815Z,72.57
2022-12-31T12:23:18.504Z,72.95
2022-12-31T12:26:02.586Z,72.94
2022-12-31T12:28:46.974Z,72.60
2022-12-31T12:31:30.590Z,71.38
2022-12-31T12:34:23.963Z,72.47
2022-12-31T12:37:32.320Z,72.81
2022-12-31T12:40:29.896Z,73.34
2022-12-31T12:43:24.657Z,73.70
2022-12-31T12:46:18.055Z,73.69
2022-12-31T12:49:01.456Z,73.21
2022-12-31T12:51:59.189Z,73.43
2022-12-31T12:55:00.469Z,73.47
2022-12-31T12:57:50.321Z,73.54
2022-12-31T13:00:39.264Z,73.08
2022-12-31T13:04:23.754Z,73.25
2022-12-31T13:07:11.339Z,72.90
2022-12-31T13:10:16.652Z,71.84
2022-12-31T13:13:25.476Z,72.49
2022-12-31T13:16:17.740Z,71.75
2022-12-31T13:19:08.974Z,71.60
2022-12-31T13:21:58.992Z,71.67
2022-12-31T13:24:53.201Z,70.64
2022-12-31T13:27:40.597Z,70.54
2022-12-31T13:30:26.454Z,70.44
2022-12-31T13:33:18.218Z,70.34
2022-12-31T13:36:05.025Z,70.58
2022-12-31T13:38:52.243Z,70.29
2022-12-31T13:41:40.139Z,70.25
2022-12-31T13:44:30.044Z,69.98
2022-12-31T13:47:16.986Z,69.97
2022-12-31T13:50:04.867Z,69.81
2022-12-31T13:52:56.692Z,69.65
2022-12-31T13:55:43.303Z,69.54
2022-12-31T13:58:32.605Z,69.15
2022-12-31T14:01:21.982Z,69.20
2022-12-31T14:04:13.108Z,68.89
2022-12-31T14:06:59.894Z,69.18
2022-12-31T14:09:42.917Z,69.38
2022-12-31T14:12:39.735Z,69.37
2022-12-31T14:15:29.872Z,69.69
2022-12-31T14:18:22.961Z,69.34
2022-12-31T14:21:12.880Z,69.03
2022-12-31T14:24:06.840Z,68.69
2022-12-31T14:26:53.846Z,68.55
2022-12-31T14:29:41.995Z,68.45
2022-12-31T14:32:51.596Z,68.37
2022-12-31T14:36:10.327Z,67.75
2022-12-31T14:39:08.421Z,67.28
2022-12-31T14:42:04.577Z,67.71
2022-12-31T14:45:05.569Z,67.86
2022-12-31T14:47:54.693Z,68.19
2022-12-31T14:50:38.235Z,68.42
2022-12-31T14:53:26.709Z,68.56
2022-12-31T14:56:41.178Z,68.43
2022-12-31T14:59:28.722Z,68.40
2022-12-31T15:02:28.155Z,68.17
2022-12-31T15:05:18.003Z,68.27
2022-12-31T15:08:14.280Z,68.40
2022-12-31T15:11:35.777Z,68.20
2022-12-31T15:14:39.880Z,68.36
2022-12-31T15:17:31.871Z,68.44
2022-12-31T15:20:38.201Z,68.50
2022-12-31T15:23:24.405Z,68.51
2022-12-31T15:26:08.488Z,68.88
2022-12-31T15:29:00.659Z,68.93
2022-12-31T15:31:47.581Z,69.09
2022-12-31T15:34:33.780Z,69.20
2022-12-31T15:37:31.137Z,69.12
2022-12-31T15:40:25.038Z,69.27
2022-12-31T15:43:14.810Z,69.45
2022-12-31T15:45:58.666Z,69.48
2022-12-31T15:48:52.091Z,69.31
2022-12-31T15:51:44.117Z,69.32
2022-12-31T15:54:36.844Z,69.47
2022-12-31T15:57:24.307Z,69.05
2022-12-31T16:00:16.992Z,68.97
2022-12-31T16:03:00.020Z,68.60
2022-12-31T16:05:44.280Z,68.30
2022-12-31T16:08:31.150Z,68.04
2022-12-31T16:11:14.183Z,67.93
2022-12-31T16:13:59.737Z,68.04
2022-12-31T16:16:53.296Z,68.10
2022-12-31T16:19:42.693Z,68.00
2022-12-31T16:22:29.621Z,68.28
2022-12-31T16:25:33.105Z,67.99
2022-12-31T16:28:20.008Z,67.70
2022-12-31T16:31:05.538Z,67.39
2022-12-31T16:33:48.632Z,67.05
2022-12-31T16:36:31.895Z,67.48
2022-12-31T16:39:28.555Z,67.15
2022-12-31T16:42:22.029Z,67.69
2022-12-31T16:45:20.097Z,69.02
2022-12-31T16:48:13.022Z,69.86
2022-12-31T16:51:00.005Z,71.15
2022-12-31T16:53:43.759Z,72.60
2022-12-31T16:56:33.932Z,72.51
2022-12-31T16:59:29.234Z,72.81
2022-12-31T17:02:19.222Z,73.22
2022-12-31T17:05:02.540Z,72.01
2022-12-31T17:07:45.501Z,71.85
2022-12-31T17:10:36.162Z,72.43
2022-12-31T17:13:28.317Z,71.58
2022-12-31T17:16:12.201Z,71.86
2022-12-31T17:18:55.177Z,71.72
2022-12-31T17:21:38.029Z,71.22
2022-12-31T17:24:22.225Z,70.86
2022-12-31T17:27:07.095Z,70.52
2022-12-31T17:29:51.169Z,70.59
2022-12-31T17:32:37.970Z,69.99
2022-12-31T17:35:30.142Z,69.86
2022-12-31T17:38:32.704Z,69.69
2022-12-31T17:41:18.387Z,69.72
2022-12-31T17:44:01.261Z,69.73
2022-12-31T17:46:45.583Z,69.68
2022-12-31T17:49:31.308Z,69.52
2022-12-31T17:52:15.826Z,70.05
2022-12-31T17:54:58.646Z,70.23
2022-12-31T17:57:47.334Z,69.82
2022-12-31T18:00:30.292Z,69.53
2022-12-31T18:03:14.497Z,69.64
2022-12-31T18:05:57.363Z,69.34
2022-12-31T18:08:40.267Z,69.30
2022-12-31T18:11:25.457Z,68.77
2022-12-31T18:14:08.492Z,68.71
2022-12-31T18:16:51.317Z,68.39
2022-12-31T18:20:03.520Z,67.98
2022-12-31T18:22:39.441Z,67.99
2022-12-31T18:25:24.226Z,67.97
2022-12-31T18:28:11.850Z,67.93
2022-12-31T18:30:54.713Z,68.12
2022-12-31T18:33:37.591Z,67.94
2022-12-31T18:36:22.828Z,68.17
2022-12-31T18:39:05.669Z,68.58
2022-12-31T18:41:50.056Z,68.45
2022-12-31T18:44:33.311Z,68.51
2022-12-31T18:47:18.372Z,68.53
2022-12-31T18:50:01.180Z,68.06
2022-12-31T18:52:45.503Z,67.87
2022-12-31T18:55:37.384Z,67.73
2022-12-31T18:58:20.373Z,67.79
2022-12-31T19:01:03.391Z,67.51
2022-12-31T19:03:46.254Z,67.54
2022-12-31T19:06:29.453Z,68.01
2022-12-31T19:09:43.427Z,67.80
2022-12-31T19:12:16.635Z,67.92
2022-12-31T19:14:59.796Z,67.42
2022-12-31T19:17:42.572Z,67.49
2022-12-31T19:20:25.477Z,67.29
2022-12-31T19:23:16.371Z,67.45
2022-12-31T19:26:00.816Z,67.20
2022-12-31T19:28:44.399Z,67.08
2022-12-31T19:31:27.230Z,66.34
2022-12-31T19:34:10.033Z,66.39
2022-12-31T19:36:52.920Z,66.06
2022-12-31T19:39:35.846Z,66.15
2022-12-31T19:42:20.145Z,65.79
2022-12-31T19:45:03.198Z,65.34
2022-12-31T19:47:46.348Z,65.25
2022-12-31T19:50:29.859Z,64.69
2022-12-31T19:53:14.811Z,64.86
2022-12-31T19:55:57.664Z,64.97
2022-12-31T19:58:42.005Z,65.38
2022-12-31T20:01:26.391Z,64.91
2022-12-31T20:04:09.405Z,64.95
2022-12-31T20:06:52.394Z,64.69
2022-12-31T20:09:35.179Z,64.44
2022-12-31T20:12:18.282Z,64.54
2022-12-31T20:15:02.472Z,64.56
2022-12-31T20:17:45.346Z,64.46
2022-12-31T20:20:29.703Z,64.19
2022-12-31T20:23:12.555Z,63.78
2022-12-31T20:25:58.773Z,63.96
2022-12-31T20:28:41.773Z,63.87
2022-12-31T20:31:26.449Z,63.81
2022-12-31T20:34:10.346Z,63.31
2022-12-31T20:36:53.287Z,63.92
2022-12-31T20:39:36.222Z,63.98
2022-12-31T20:42:19.089Z,64.17
2022-12-31T20:45:01.900Z,64.14
2022-12-31T20:47:46.058Z,64.04
2022-12-31T20:50:28.876Z,64.36
2022-12-31T20:53:11.683Z,63.90
2022-12-31T20:55:54.509Z,63.97
2022-12-31T20:58:37.839Z,64.12
2022-12-31T21:01:20.888Z,64.33
2022-12-31T21:04:06.699Z,64.42
2022-12-31T21:06:49.981Z,64.16
2022-12-31T21:09:33.284Z,64.20
2022-12-31T21:12:33.753Z,64.06
2022-12-31T21:15:16.663Z,63.66
2022-12-31T21:18:00.469Z,63.50
2022-12-31T21:20:48.297Z,63.30
2022-12-31T21:23:31.394Z,63.34
2022-12-31T21:26:14.426Z,62.82
2022-12-31T21:28:57.277Z,63.01
2022-12-31T21:31:40.110Z,63.31
2022-12-31T21:34:22.956Z,63.50
2022-12-31T21:37:07.508Z,63.52
2022-12-31T21:39:50.301Z,63.66
2022-12-31T21:42:33.111Z,63.82
2022-12-31T21:45:15.994Z,63.85
2022-12-31T21:48:17.362Z,63.88
2022-12-31T21:51:07.883Z,63.89
2022-12-31T21:53:52.295Z,63.65
2022-12-31T21:56:34.147Z,63.85
2022-12-31T21:59:46.290Z,63.87
2022-12-31T22:02:59.746Z,63.65
2022-12-31T22:05:48.783Z,63.57
2022-12-31T22:08:32.139Z,63.49
2022-12-31T22:11:17.574Z,63.15
2022-12-31T22:14:00.392Z,62.87
2022-12-31T22:16:43.215Z,62.70
2022-12-31T22:19:26.136Z,62.76
2022-12-31T22:22:08.983Z,62.65
2022-12-31T22:24:51.806Z,62.73
2022-12-31T22:27:35.997Z,63.01
2022-12-31T22:30:19.077Z,62.44
2022-12-31T22:33:02.205Z,62.26
2022-12-31T22:35:45.020Z,61.72
2022-12-31T22:38:27.946Z,61.32
2022-12-31T22:41:12.453Z,61.37
2022-12-31T22:44:03.735Z,61.20
2022-12-31T22:46:49.171Z,61.50
2022-12-31T22:49:32.042Z,61.40
2022-12-31T22:52:14.877Z,61.37
2022-12-31T22:54:57.696Z,60.93
2022-12-31T22:57:40.461Z,60.83
2022-12-31T23:00:38.050Z,60.63
2022-12-31T23:03:21.191Z,60.33
2022-12-31T23:06:04.096Z,60.60
2022-12-31T23:09:07.738Z,61.05
2022-12-31T23:11:49.621Z,60.97
2022-12-31T23:14:49.787Z,60.76
2022-12-31T23:17:51.335Z,60.70
2022-12-31T23:20:51.917Z,60.72
2022-12-31T23:23:34.717Z,60.49
2022-12-31T23:26:17.536Z,60.26
2022-12-31T23:29:01.464Z,60.65
2022-12-31T23:31:44.291Z,60.79
2022-12-31T23:34:28.555Z,60.57
2022-12-31T23:37:11.486Z,60.95
2022-12-31T23:39:54.364Z,60.86
2022-12-31T23:42:37.178Z,61.21
2022-12-31T23:45:19.986Z,61.46
2022-12-31T23:48:02.987Z,61.35
2022-12-31T23:50:53.111Z,61.46
2022-12-31T23:53:38.635Z,61.66
2022-12-31T23:56:23.971Z,62.22
2022-12-31T23:59:07.302Z,62.36
